sensor_id;sensor_type;location;lat;lon;timestamp;pressure;altitude;pressure_sealevel;temperature;humidity
54872;BME280;43914;57.680;11.982;2023-11-19T00:02:13;100719.23;;;-1.61;100.00
54872;BME280;43914;57.680;11.982;2023-11-19T00:04:39;100717.15;;;-1.61;100.00
54872;BME280;43914;57.680;11.982;2023-11-19T00:07:05;100712.52;;;-1.61;100.00
54872;BME280;43914;57.680;11.982;2023-11-19T00:09:35;100709.54;;;-1.58;100.00
54872;BME280;43914;57.680;11.982;2023-11-19T00:12:03;100702.04;;;-1.56;100.00
54872;BME280;43914;57.680;11.982;2023-11-19T00:14:30;100700.11;;;-1.56;100.00
54872;BME280;43914;57.680;11.982;2023-11-19T00:16:55;100696.18;;;-1.55;100.00
54872;BME280;43914;57.680;11.982;2023-11-19T00:19:21;100688.92;;;-1.52;100.00
54872;BME280;43914;57.680;11.982;2023-11-19T00:21:46;100683.19;;;-1.51;100.00
54872;BME280;43914;57.680;11.982;2023-11-19T00:24:12;100680.86;;;-1.48;100.00
54872;BME280;43914;57.680;11.982;2023-11-19T00:26:38;100671.69;;;-1.44;100.00
54872;BME280;43914;57.680;11.982;2023-11-19T00:29:04;100667.08;;;-1.41;100.00
54872;BME280;43914;57.680;11.982;2023-11-19T00:31:29;100664.58;;;-1.38;100.00
54872;BME280;43914;57.680;11.982;2023-11-19T00:33:55;100660.15;;;-1.35;100.00
54872;BME280;43914;57.680;11.982;2023-11-19T00:36:20;100658.91;;;-1.33;100.00
54872;BME280;43914;57.680;11.982;2023-11-19T00:38:46;100646.52;;;-1.31;100.00
54872;BME280;43914;57.680;11.982;2023-11-19T00:41:11;100650.27;;;-1.29;100.00
54872;BME280;43914;57.680;11.982;2023-11-19T00:43:37;100646.18;;;-1.29;100.00
54872;BME280;43914;57.680;11.982;2023-11-19T00:46:03;100640.06;;;-1.27;100.00
54872;BME280;43914;57.680;11.982;2023-11-19T00:48:29;100635.42;;;-1.26;100.00
54872;BME280;43914;57.680;11.982;2023-11-19T00:50:55;100633.15;;;-1.24;100.00
54872;BME280;43914;57.680;11.982;2023-11-19T00:53:20;100626.70;;;-1.22;100.00
54872;BME280;43914;57.680;11.982;2023-11-19T00:55:45;100623.40;;;-1.22;100.00
54872;BME280;43914;57.680;11.982;2023-11-19T00:58:11;100617.65;;;-1.21;100.00
54872;BME280;43914;57.680;11.982;2023-11-19T01:00:36;100614.44;;;-1.20;100.00
54872;BME280;43914;57.680;11.982;2023-11-19T01:03:02;100612.80;;;-1.19;100.00
54872;BME280;43914;57.680;11.982;2023-11-19T01:05:28;100609.48;;;-1.19;100.00
54872;BME280;43914;57.680;11.982;2023-11-19T01:07:54;100603.98;;;-1.19;100.00
54872;BME280;43914;57.680;11.982;2023-11-19T01:10:19;100596.15;;;-1.20;100.00
54872;BME280;43914;57.680;11.982;2023-11-19T01:12:46;100587.43;;;-1.21;100.00
54872;BME280;43914;57.680;11.982;2023-11-19T01:15:12;100579.42;;;-1.20;100.00
54872;BME280;43914;57.680;11.982;2023-11-19T01:17:38;100577.20;;;-1.18;100.00
54872;BME280;43914;57.680;11.982;2023-11-19T01:20:06;100570.52;;;-1.18;100.00
54872;BME280;43914;57.680;11.982;2023-11-19T01:22:33;100567.78;;;-1.17;100.00
54872;BME280;43914;57.680;11.982;2023-11-19T01:24:58;100559.54;;;-1.17;100.00
54872;BME280;43914;57.680;11.982;2023-11-19T01:27:24;100552.54;;;-1.18;100.00
54872;BME280;43914;57.680;11.982;2023-11-19T01:29:50;100545.13;;;-1.17;100.00
54872;BME280;43914;57.680;11.982;2023-11-19T01:32:16;100540.25;;;-1.15;100.00
54872;BME280;43914;57.680;11.982;2023-11-19T01:34:41;100533.96;;;-1.13;100.00
54872;BME280;43914;57.680;11.982;2023-11-19T01:37:07;100529.59;;;-1.13;100.00
54872;BME280;43914;57.680;11.982;2023-11-19T01:39:34;100521.39;;;-1.12;100.00
54872;BME280;43914;57.680;11.982;2023-11-19T01:42:00;100517.52;;;-1.10;100.00
54872;BME280;43914;57.680;11.982;2023-11-19T01:44:25;100511.94;;;-1.08;100.00
54872;BME280;43914;57.680;11.982;2023-11-19T01:46:51;100508.89;;;-1.07;100.00
54872;BME280;43914;57.680;11.982;2023-11-19T01:49:17;100502.45;;;-1.06;100.00
54872;BME280;43914;57.680;11.982;2023-11-19T01:51:44;100493.15;;;-1.06;100.00
54872;BME280;43914;57.680;11.982;2023-11-19T01:54:14;100494.10;;;-1.04;100.00
54872;BME280;43914;57.680;11.982;2023-11-19T01:56:41;100492.30;;;-1.04;100.00
54872;BME280;43914;57.680;11.982;2023-11-19T01:59:08;100486.78;;;-1.03;100.00
54872;BME280;43914;57.680;11.982;2023-11-19T02:01:35;100484.34;;;-1.01;100.00
54872;BME280;43914;57.680;11.982;2023-11-19T02:04:05;100482.92;;;-0.98;100.00
54872;BME280;43914;57.680;11.982;2023-11-19T02:06:33;100476.72;;;-0.98;100.00
54872;BME280;43914;57.680;11.982;2023-11-19T02:09:00;100472.36;;;-0.96;100.00
54872;BME280;43914;57.680;11.982;2023-11-19T02:11:26;100466.52;;;-0.95;100.00
54872;BME280;43914;57.680;11.982;2023-11-19T02:13:57;100458.50;;;-0.94;100.00
54872;BME280;43914;57.680;11.982;2023-11-19T02:16:23;100457.14;;;-0.92;100.00
54872;BME280;43914;57.680;11.982;2023-11-19T02:18:48;100452.33;;;-0.91;100.00
54872;BME280;43914;57.680;11.982;2023-11-19T02:21:16;100440.98;;;-0.90;100.00
54872;BME280;43914;57.680;11.982;2023-11-19T02:23:43;100434.73;;;-0.89;100.00
54872;BME280;43914;57.680;11.982;2023-11-19T02:26:24;100429.83;;;-0.89;100.00
54872;BME280;43914;57.680;11.982;2023-11-19T02:28:52;100421.32;;;-0.88;100.00
54872;BME280;43914;57.680;11.982;2023-11-19T02:31:18;100416.50;;;-0.88;100.00
54872;BME280;43914;57.680;11.982;2023-11-19T02:33:44;100410.64;;;-0.87;100.00
54872;BME280;43914;57.680;11.982;2023-11-19T02:36:10;100404.52;;;-0.87;100.00
54872;BME280;43914;57.680;11.982;2023-11-19T02:38:36;100403.62;;;-0.87;100.00
54872;BME280;43914;57.680;11.982;2023-11-19T02:41:03;100397.60;;;-0.86;100.00
54872;BME280;43914;57.680;11.982;2023-11-19T02:43:34;100386.13;;;-0.86;100.00
54872;BME280;43914;57.680;11.982;2023-11-19T02:46:04;100380.66;;;-0.86;100.00
54872;BME280;43914;57.680;11.982;2023-11-19T02:48:35;100374.72;;;-0.86;100.00
54872;BME280;43914;57.680;11.982;2023-11-19T02:51:04;100365.91;;;-0.86;100.00
54872;BME280;43914;57.680;11.982;2023-11-19T02:53:34;100356.96;;;-0.86;100.00
54872;BME280;43914;57.680;11.982;2023-11-19T02:56:00;100354.04;;;-0.85;100.00
54872;BME280;43914;57.680;11.982;2023-11-19T02:58:32;100351.16;;;-0.84;100.00
54872;BME280;43914;57.680;11.982;2023-11-19T03:00:57;100343.63;;;-0.84;100.00
54872;BME280;43914;57.680;11.982;2023-11-19T03:03:24;100343.90;;;-0.83;100.00
54872;BME280;43914;57.680;11.982;2023-11-19T03:05:56;100341.98;;;-0.81;100.00
54872;BME280;43914;57.680;11.982;2023-11-19T03:08:22;100340.70;;;-0.81;100.00
54872;BME280;43914;57.680;11.982;2023-11-19T03:10:48;100338.13;;;-0.79;100.00
54872;BME280;43914;57.680;11.982;2023-11-19T03:13:14;100337.09;;;-0.77;100.00
54872;BME280;43914;57.680;11.982;2023-11-19T03:15:41;100330.42;;;-0.75;100.00
54872;BME280;43914;57.680;11.982;2023-11-19T03:18:07;100326.70;;;-0.72;100.00
54872;BME280;43914;57.680;11.982;2023-11-19T03:20:32;100312.49;;;-0.71;100.00
54872;BME280;43914;57.680;11.982;2023-11-19T03:22:58;100306.49;;;-0.71;100.00
54872;BME280;43914;57.680;11.982;2023-11-19T03:25:27;100296.84;;;-0.69;100.00
54872;BME280;43914;57.680;11.982;2023-11-19T03:27:59;100293.00;;;-0.69;100.00
54872;BME280;43914;57.680;11.982;2023-11-19T03:30:29;100285.46;;;-0.67;100.00
54872;BME280;43914;57.680;11.982;2023-11-19T03:32:58;100279.06;;;-0.66;100.00
54872;BME280;43914;57.680;11.982;2023-11-19T03:35:25;100274.11;;;-0.64;100.00
54872;BME280;43914;57.680;11.982;2023-11-19T03:37:50;100276.23;;;-0.62;100.00
54872;BME280;43914;57.680;11.982;2023-11-19T03:40:17;100267.59;;;-0.61;100.00
54872;BME280;43914;57.680;11.982;2023-11-19T03:42:44;100265.06;;;-0.61;100.00
54872;BME280;43914;57.680;11.982;2023-11-19T03:45:10;100256.98;;;-0.61;100.00
54872;BME280;43914;57.680;11.982;2023-11-19T03:47:37;100253.15;;;-0.60;100.00
54872;BME280;43914;57.680;11.982;2023-11-19T03:50:04;100249.61;;;-0.59;100.00
54872;BME280;43914;57.680;11.982;2023-11-19T03:52:30;100236.73;;;-0.59;100.00
54872;BME280;43914;57.680;11.982;2023-11-19T03:54:55;100230.14;;;-0.57;100.00
54872;BME280;43914;57.680;11.982;2023-11-19T03:57:23;100228.14;;;-0.59;100.00
54872;BME280;43914;57.680;11.982;2023-11-19T03:59:48;100217.72;;;-0.58;100.00
54872;BME280;43914;57.680;11.982;2023-11-19T04:02:15;100206.65;;;-0.59;100.00
54872;BME280;43914;57.680;11.982;2023-11-19T04:04:40;100200.39;;;-0.60;100.00
54872;BME280;43914;57.680;11.982;2023-11-19T04:07:06;100198.89;;;-0.61;100.00
54872;BME280;43914;57.680;11.982;2023-11-19T04:09:32;100198.27;;;-0.62;100.00
54872;BME280;43914;57.680;11.982;2023-11-19T04:12:01;100193.59;;;-0.63;100.00
54872;BME280;43914;57.680;11.982;2023-11-19T04:14:27;100190.02;;;-0.64;100.00
54872;BME280;43914;57.680;11.982;2023-11-19T04:16:52;100189.98;;;-0.64;100.00
54872;BME280;43914;57.680;11.982;2023-11-19T04:19:19;100183.84;;;-0.64;100.00
54872;BME280;43914;57.680;11.982;2023-11-19T04:21:45;100177.64;;;-0.66;100.00
54872;BME280;43914;57.680;11.982;2023-11-19T04:24:12;100176.89;;;-0.65;100.00
54872;BME280;43914;57.680;11.982;2023-11-19T04:26:41;100175.27;;;-0.64;100.00
54872;BME280;43914;57.680;11.982;2023-11-19T04:29:15;100170.88;;;-0.67;100.00
54872;BME280;43914;57.680;11.982;2023-11-19T04:31:45;100173.83;;;-0.66;100.00
54872;BME280;43914;57.680;11.982;2023-11-19T04:34:11;100170.67;;;-0.64;100.00
54872;BME280;43914;57.680;11.982;2023-11-19T04:36:37;100171.73;;;-0.62;100.00
54872;BME280;43914;57.680;11.982;2023-11-19T04:39:03;100166.98;;;-0.62;100.00
54872;BME280;43914;57.680;11.982;2023-11-19T04:41:48;100156.76;;;-0.62;100.00
54872;BME280;43914;57.680;11.982;2023-11-19T04:44:15;100151.79;;;-0.61;100.00
54872;BME280;43914;57.680;11.982;2023-11-19T04:46:41;100151.20;;;-0.61;100.00
54872;BME280;43914;57.680;11.982;2023-11-19T04:49:09;100146.46;;;-0.61;100.00
54872;BME280;43914;57.680;11.982;2023-11-19T04:51:43;100144.92;;;-0.59;100.00
54872;BME280;43914;57.680;11.982;2023-11-19T04:54:09;100143.07;;;-0.58;100.00
54872;BME280;43914;57.680;11.982;2023-11-19T04:56:36;100136.37;;;-0.57;100.00
54872;BME280;43914;57.680;11.982;2023-11-19T04:59:03;100130.84;;;-0.56;100.00
54872;BME280;43914;57.680;11.982;2023-11-19T05:01:31;100129.43;;;-0.56;100.00
54872;BME280;43914;57.680;11.982;2023-11-19T05:03:57;100122.81;;;-0.55;100.00
54872;BME280;43914;57.680;11.982;2023-11-19T05:06:29;100120.77;;;-0.54;100.00
54872;BME280;43914;57.680;11.982;2023-11-19T05:08:59;100119.67;;;-0.54;100.00
54872;BME280;43914;57.680;11.982;2023-11-19T05:11:43;100119.79;;;-0.53;100.00
54872;BME280;43914;57.680;11.982;2023-11-19T05:14:09;100113.34;;;-0.53;100.00
54872;BME280;43914;57.680;11.982;2023-11-19T05:16:34;100107.05;;;-0.52;100.00
54872;BME280;43914;57.680;11.982;2023-11-19T05:19:00;100104.70;;;-0.51;100.00
54872;BME280;43914;57.680;11.982;2023-11-19T05:21:25;100100.27;;;-0.51;100.00
54872;BME280;43914;57.680;11.982;2023-11-19T05:23:51;100102.06;;;-0.51;100.00
54872;BME280;43914;57.680;11.982;2023-11-19T05:26:20;100103.85;;;-0.50;100.00
54872;BME280;43914;57.680;11.982;2023-11-19T05:28:47;100101.40;;;-0.50;100.00
54872;BME280;43914;57.680;11.982;2023-11-19T05:31:12;100098.35;;;-0.49;100.00
54872;BME280;43914;57.680;11.982;2023-11-19T05:33:38;100094.83;;;-0.49;100.00
54872;BME280;43914;57.680;11.982;2023-11-19T05:36:04;100096.05;;;-0.49;100.00
54872;BME280;43914;57.680;11.982;2023-11-19T05:38:30;100096.09;;;-0.49;100.00
54872;BME280;43914;57.680;11.982;2023-11-19T05:40:56;100094.75;;;-0.48;100.00
54872;BME280;43914;57.680;11.982;2023-11-19T05:43:22;100093.27;;;-0.47;100.00
54872;BME280;43914;57.680;11.982;2023-11-19T05:45:48;100094.37;;;-0.46;100.00
54872;BME280;43914;57.680;11.982;2023-11-19T05:48:13;100093.33;;;-0.43;100.00
54872;BME280;43914;57.680;11.982;2023-11-19T05:50:39;100093.89;;;-0.42;100.00
54872;BME280;43914;57.680;11.982;2023-11-19T05:53:05;100092.71;;;-0.38;100.00
54872;BME280;43914;57.680;11.982;2023-11-19T05:55:34;100087.25;;;-0.36;100.00
54872;BME280;43914;57.680;11.982;2023-11-19T05:58:01;100085.31;;;-0.34;100.00
54872;BME280;43914;57.680;11.982;2023-11-19T06:00:27;100083.81;;;-0.33;100.00
54872;BME280;43914;57.680;11.982;2023-11-19T06:02:52;100079.80;;;-0.31;100.00
54872;BME280;43914;57.680;11.982;2023-11-19T06:05:18;100074.92;;;-0.30;100.00
54872;BME280;43914;57.680;11.982;2023-11-19T06:07:43;100077.60;;;-0.28;100.00
54872;BME280;43914;57.680;11.982;2023-11-19T06:10:09;100072.38;;;-0.26;100.00
54872;BME280;43914;57.680;11.982;2023-11-19T06:12:36;100071.39;;;-0.25;100.00
54872;BME280;43914;57.680;11.982;2023-11-19T06:15:07;100071.58;;;-0.25;100.00
54872;BME280;43914;57.680;11.982;2023-11-19T06:17:36;100073.77;;;-0.24;100.00
54872;BME280;43914;57.680;11.982;2023-11-19T06:20:02;100073.52;;;-0.23;100.00
54872;BME280;43914;57.680;11.982;2023-11-19T06:22:30;100074.61;;;-0.24;100.00
54872;BME280;43914;57.680;11.982;2023-11-19T06:24:55;100075.59;;;-0.23;100.00
54872;BME280;43914;57.680;11.982;2023-11-19T06:27:21;100067.56;;;-0.22;100.00
54872;BME280;43914;57.680;11.982;2023-11-19T06:29:48;100068.89;;;-0.23;100.00
54872;BME280;43914;57.680;11.982;2023-11-19T06:32:13;100063.69;;;-0.24;100.00
54872;BME280;43914;57.680;11.982;2023-11-19T06:34:38;100058.80;;;-0.24;100.00
54872;BME280;43914;57.680;11.982;2023-11-19T06:37:04;100053.73;;;-0.23;100.00
54872;BME280;43914;57.680;11.982;2023-11-19T06:39:30;100049.73;;;-0.23;100.00
54872;BME280;43914;57.680;11.982;2023-11-19T06:41:55;100043.71;;;-0.23;100.00
54872;BME280;43914;57.680;11.982;2023-11-19T06:44:21;100046.16;;;-0.21;100.00
54872;BME280;43914;57.680;11.982;2023-11-19T06:46:48;100039.39;;;-0.20;100.00
54872;BME280;43914;57.680;11.982;2023-11-19T06:49:14;100035.10;;;-0.19;100.00
54872;BME280;43914;57.680;11.982;2023-11-19T06:51:42;100035.95;;;-0.19;100.00
54872;BME280;43914;57.680;11.982;2023-11-19T06:54:09;100029.25;;;-0.17;100.00
54872;BME280;43914;57.680;11.982;2023-11-19T06:56:35;100025.93;;;-0.17;100.00
54872;BME280;43914;57.680;11.982;2023-11-19T06:59:02;100022.31;;;-0.18;100.00
54872;BME280;43914;57.680;11.982;2023-11-19T07:01:28;100018.70;;;-0.17;100.00
54872;BME280;43914;57.680;11.982;2023-11-19T07:03:54;100020.80;;;-0.17;100.00
54872;BME280;43914;57.680;11.982;2023-11-19T07:06:19;100005.38;;;-0.15;100.00
54872;BME280;43914;57.680;11.982;2023-11-19T07:08:44;100002.31;;;-0.14;100.00
54872;BME280;43914;57.680;11.982;2023-11-19T07:11:13;100000.28;;;-0.13;100.00
54872;BME280;43914;57.680;11.982;2023-11-19T07:13:42;99995.80;;;-0.12;100.00
54872;BME280;43914;57.680;11.982;2023-11-19T07:16:07;99990.39;;;-0.11;100.00
54872;BME280;43914;57.680;11.982;2023-11-19T07:18:35;99991.58;;;-0.10;100.00
54872;BME280;43914;57.680;11.982;2023-11-19T07:21:01;99979.05;;;-0.10;100.00
54872;BME280;43914;57.680;11.982;2023-11-19T07:23:28;99978.80;;;-0.09;100.00
54872;BME280;43914;57.680;11.982;2023-11-19T07:25:53;99983.34;;;-0.07;100.00
54872;BME280;43914;57.680;11.982;2023-11-19T07:28:19;99977.42;;;-0.05;100.00
54872;BME280;43914;57.680;11.982;2023-11-19T07:30:44;99972.66;;;-0.04;100.00
54872;BME280;43914;57.680;11.982;2023-11-19T07:33:09;99972.89;;;-0.02;100.00
54872;BME280;43914;57.680;11.982;2023-11-19T07:35:35;99973.27;;;-0.00;100.00
54872;BME280;43914;57.680;11.982;2023-11-19T07:38:00;99970.04;;;-0.02;100.00
54872;BME280;43914;57.680;11.982;2023-11-19T07:40:26;99961.11;;;0.00;100.00
54872;BME280;43914;57.680;11.982;2023-11-19T07:42:51;99955.98;;;0.03;100.00
54872;BME280;43914;57.680;11.982;2023-11-19T07:45:17;99960.42;;;0.04;100.00
54872;BME280;43914;57.680;11.982;2023-11-19T07:47:43;99957.46;;;0.06;100.00
54872;BME280;43914;57.680;11.982;2023-11-19T07:50:10;99952.59;;;0.07;100.00
54872;BME280;43914;57.680;11.982;2023-11-19T07:52:38;99950.17;;;0.10;100.00
54872;BME280;43914;57.680;11.982;2023-11-19T07:55:04;99952.98;;;0.12;100.00
54872;BME280;43914;57.680;11.982;2023-11-19T07:57:30;99944.86;;;0.14;100.00
54872;BME280;43914;57.680;11.982;2023-11-19T07:59:59;99954.70;;;0.17;100.00
54872;BME280;43914;57.680;11.982;2023-11-19T08:02:26;99948.80;;;0.18;100.00
54872;BME280;43914;57.680;11.982;2023-11-19T08:04:52;99950.56;;;0.20;100.00
54872;BME280;43914;57.680;11.982;2023-11-19T08:07:20;99950.09;;;0.23;100.00
54872;BME280;43914;57.680;11.982;2023-11-19T08:09:46;99954.59;;;0.26;100.00
54872;BME280;43914;57.680;11.982;2023-11-19T08:12:12;99953.48;;;0.29;100.00
54872;BME280;43914;57.680;11.982;2023-11-19T08:14:40;99950.97;;;0.32;100.00
54872;BME280;43914;57.680;11.982;2023-11-19T08:17:07;99949.41;;;0.35;100.00
54872;BME280;43914;57.680;11.982;2023-11-19T08:19:32;99945.65;;;0.38;100.00
54872;BME280;43914;57.680;11.982;2023-11-19T08:21:58;99944.44;;;0.41;100.00
54872;BME280;43914;57.680;11.982;2023-11-19T08:24:23;99944.54;;;0.44;100.00
54872;BME280;43914;57.680;11.982;2023-11-19T08:26:49;99940.17;;;0.48;100.00
54872;BME280;43914;57.680;11.982;2023-11-19T08:29:14;99941.38;;;0.50;100.00
54872;BME280;43914;57.680;11.982;2023-11-19T08:31:39;99940.50;;;0.54;100.00
54872;BME280;43914;57.680;11.982;2023-11-19T08:34:05;99938.80;;;0.57;100.00
54872;BME280;43914;57.680;11.982;2023-11-19T08:36:34;99937.54;;;0.60;100.00
54872;BME280;43914;57.680;11.982;2023-11-19T08:38:59;99931.42;;;0.63;100.00
54872;BME280;43914;57.680;11.982;2023-11-19T08:41:25;99934.50;;;0.66;100.00
54872;BME280;43914;57.680;11.982;2023-11-19T08:43:50;99932.66;;;0.69;100.00
54872;BME280;43914;57.680;11.982;2023-11-19T08:46:17;99930.17;;;0.71;100.00
54872;BME280;43914;57.680;11.982;2023-11-19T08:48:42;99922.27;;;0.74;100.00
54872;BME280;43914;57.680;11.982;2023-11-19T08:51:07;99921.08;;;0.78;100.00
54872;BME280;43914;57.680;11.982;2023-11-19T08:53:34;99918.73;;;0.82;100.00
54872;BME280;43914;57.680;11.982;2023-11-19T08:55:59;99917.65;;;0.86;100.00
54872;BME280;43914;57.680;11.982;2023-11-19T08:58:26;99915.99;;;0.89;100.00
54872;BME280;43914;57.680;11.982;2023-11-19T09:00:51;99906.70;;;0.92;100.00
54872;BME280;43914;57.680;11.982;2023-11-19T09:03:16;99910.61;;;0.96;100.00
54872;BME280;43914;57.680;11.982;2023-11-19T09:05:42;99912.09;;;1.01;100.00
54872;BME280;43914;57.680;11.982;2023-11-19T09:08:08;99907.63;;;1.03;100.00
54872;BME280;43914;57.680;11.982;2023-11-19T09:10:34;99904.14;;;1.07;100.00
54872;BME280;43914;57.680;11.982;2023-11-19T09:12:59;99901.83;;;1.11;100.00
54872;BME280;43914;57.680;11.982;2023-11-19T09:15:24;99901.53;;;1.16;100.00
54872;BME280;43914;57.680;11.982;2023-11-19T09:17:50;99901.48;;;1.20;100.00
54872;BME280;43914;57.680;11.982;2023-11-19T09:20:15;99901.17;;;1.22;100.00
54872;BME280;43914;57.680;11.982;2023-11-19T09:22:41;99899.86;;;1.25;100.00
54872;BME280;43914;57.680;11.982;2023-11-19T09:25:07;99900.83;;;1.27;100.00
54872;BME280;43914;57.680;11.982;2023-11-19T09:27:34;99897.89;;;1.30;100.00
54872;BME280;43914;57.680;11.982;2023-11-19T09:29:59;99894.48;;;1.35;100.00
54872;BME280;43914;57.680;11.982;2023-11-19T09:32:25;99893.65;;;1.38;100.00
54872;BME280;43914;57.680;11.982;2023-11-19T09:34:50;99891.91;;;1.40;100.00
54872;BME280;43914;57.680;11.982;2023-11-19T09:37:16;99888.34;;;1.42;100.00
54872;BME280;43914;57.680;11.982;2023-11-19T09:39:41;99890.73;;;1.45;100.00
54872;BME280;43914;57.680;11.982;2023-11-19T09:42:12;99890.48;;;1.47;100.00
54872;BME280;43914;57.680;11.982;2023-11-19T09:44:38;99891.02;;;1.53;100.00
54872;BME280;43914;57.680;11.982;2023-11-19T09:47:06;99885.91;;;1.55;100.00
54872;BME280;43914;57.680;11.982;2023-11-19T09:49:33;99883.81;;;1.56;100.00
54872;BME280;43914;57.680;11.982;2023-11-19T09:52:01;99883.64;;;1.58;100.00
54872;BME280;43914;57.680;11.982;2023-11-19T09:54:26;99876.74;;;1.60;100.00
54872;BME280;43914;57.680;11.982;2023-11-19T09:56:52;99874.34;;;1.61;100.00
54872;BME280;43914;57.680;11.982;2023-11-19T09:59:18;99873.77;;;1.64;100.00
54872;BME280;43914;57.680;11.982;2023-11-19T10:01:45;99866.77;;;1.66;100.00
54872;BME280;43914;57.680;11.982;2023-11-19T10:04:12;99861.63;;;1.67;100.00
54872;BME280;43914;57.680;11.982;2023-11-19T10:06:41;99856.83;;;1.70;100.00
54872;BME280;43914;57.680;11.982;2023-11-19T10:09:07;99855.95;;;1.72;100.00
54872;BME280;43914;57.680;11.982;2023-11-19T10:11:33;99852.80;;;1.74;100.00
54872;BME280;43914;57.680;11.982;2023-11-19T10:13:59;99849.28;;;1.76;100.00
54872;BME280;43914;57.680;11.982;2023-11-19T10:16:29;99851.01;;;1.80;100.00
54872;BME280;43914;57.680;11.982;2023-11-19T10:18:56;99841.11;;;1.84;100.00
54872;BME280;43914;57.680;11.982;2023-11-19T10:21:22;99834.26;;;1.87;100.00
54872;BME280;43914;57.680;11.982;2023-11-19T10:23:51;99829.77;;;1.90;100.00
54872;BME280;43914;57.680;11.982;2023-11-19T10:26:18;99827.38;;;1.91;100.00
54872;BME280;43914;57.680;11.982;2023-11-19T10:28:46;99823.84;;;1.92;100.00
54872;BME280;43914;57.680;11.982;2023-11-19T10:31:16;99823.61;;;1.96;100.00
54872;BME280;43914;57.680;11.982;2023-11-19T10:33:43;99817.50;;;2.01;100.00
54872;BME280;43914;57.680;11.982;2023-11-19T10:36:11;99813.28;;;2.07;100.00
54872;BME280;43914;57.680;11.982;2023-11-19T10:38:38;99809.20;;;2.10;100.00
54872;BME280;43914;57.680;11.982;2023-11-19T10:41:04;99805.86;;;2.12;100.00
54872;BME280;43914;57.680;11.982;2023-11-19T10:43:31;99806.03;;;2.13;100.00
54872;BME280;43914;57.680;11.982;2023-11-19T10:46:12;99805.36;;;2.17;100.00
54872;BME280;43914;57.680;11.982;2023-11-19T10:48:39;99800.13;;;2.20;100.00
54872;BME280;43914;57.680;11.982;2023-11-19T10:51:06;99804.38;;;2.24;100.00
54872;BME280;43914;57.680;11.982;2023-11-19T10:53:39;99795.60;;;2.25;100.00
54872;BME280;43914;57.680;11.982;2023-11-19T10:56:10;99797.60;;;2.29;100.00
54872;BME280;43914;57.680;11.982;2023-11-19T10:58:37;99796.52;;;2.33;100.00
54872;BME280;43914;57.680;11.982;2023-11-19T11:01:11;99795.52;;;2.40;100.00
54872;BME280;43914;57.680;11.982;2023-11-19T11:03:39;99785.61;;;2.41;100.00
54872;BME280;43914;57.680;11.982;2023-11-19T11:06:05;99786.73;;;2.44;100.00
54872;BME280;43914;57.680;11.982;2023-11-19T11:08:36;99790.09;;;2.48;100.00
54872;BME280;43914;57.680;11.982;2023-11-19T11:11:02;99792.00;;;2.50;100.00
54872;BME280;43914;57.680;11.982;2023-11-19T11:13:29;99787.31;;;2.53;100.00
54872;BME280;43914;57.680;11.982;2023-11-19T11:15:57;99782.81;;;2.54;100.00
54872;BME280;43914;57.680;11.982;2023-11-19T11:18:23;99782.23;;;2.56;100.00
54872;BME280;43914;57.680;11.982;2023-11-19T11:21:14;99782.60;;;2.57;100.00
54872;BME280;43914;57.680;11.982;2023-11-19T11:24:24;99784.70;;;2.61;100.00
54872;BME280;43914;57.680;11.982;2023-11-19T11:32:45;99778.35;;;2.63;100.00
54872;BME280;43914;57.680;11.982;2023-11-19T11:38:22;99773.69;;;2.67;100.00
54872;BME280;43914;57.680;11.982;2023-11-19T11:43:49;99768.18;;;2.69;100.00
54872;BME280;43914;57.680;11.982;2023-11-19T11:49:03;99760.05;;;2.76;100.00
54872;BME280;43914;57.680;11.982;2023-11-19T11:54:10;99754.79;;;2.79;100.00
54872;BME280;43914;57.680;11.982;2023-11-19T11:56:39;99748.45;;;2.79;100.00
54872;BME280;43914;57.680;11.982;2023-11-19T11:59:18;99751.73;;;2.81;100.00
54872;BME280;43914;57.680;11.982;2023-11-19T12:01:59;99750.62;;;2.85;100.00
54872;BME280;43914;57.680;11.982;2023-11-19T12:04:28;99742.52;;;2.85;100.00
54872;BME280;43914;57.680;11.982;2023-11-19T12:07:22;99736.70;;;2.86;100.00
54872;BME280;43914;57.680;11.982;2023-11-19T12:10:08;99731.92;;;2.88;100.00
54872;BME280;43914;57.680;11.982;2023-11-19T12:12:36;99736.14;;;2.88;100.00
54872;BME280;43914;57.680;11.982;2023-11-19T12:15:08;99732.95;;;2.90;100.00
54872;BME280;43914;57.680;11.982;2023-11-19T12:17:47;99732.92;;;2.92;100.00
54872;BME280;43914;57.680;11.982;2023-11-19T12:20:19;99734.67;;;2.96;100.00
54872;BME280;43914;57.680;11.982;2023-11-19T12:22:46;99733.08;;;2.98;100.00
54872;BME280;43914;57.680;11.982;2023-11-19T12:25:15;99736.58;;;2.98;100.00
54872;BME280;43914;57.680;11.982;2023-11-19T12:27:51;99735.50;;;3.01;100.00
54872;BME280;43914;57.680;11.982;2023-11-19T12:30:24;99732.26;;;3.05;100.00
54872;BME280;43914;57.680;11.982;2023-11-19T12:32:50;99728.77;;;3.08;100.00
54872;BME280;43914;57.680;11.982;2023-11-19T12:35:16;99730.38;;;3.11;100.00
54872;BME280;43914;57.680;11.982;2023-11-19T12:40:26;99724.42;;;3.23;100.00
54872;BME280;43914;57.680;11.982;2023-11-19T12:42:54;99721.23;;;3.25;100.00
54872;BME280;43914;57.680;11.982;2023-11-19T12:45:20;99719.52;;;3.27;100.00
54872;BME280;43914;57.680;11.982;2023-11-19T12:47:47;99716.77;;;3.28;100.00
54872;BME280;43914;57.680;11.982;2023-11-19T12:50:14;99716.80;;;3.31;100.00
54872;BME280;43914;57.680;11.982;2023-11-19T12:52:40;99715.65;;;3.36;100.00
54872;BME280;43914;57.680;11.982;2023-11-19T12:55:25;99709.15;;;3.40;100.00
54872;BME280;43914;57.680;11.982;2023-11-19T12:57:51;99709.05;;;3.43;100.00
54872;BME280;43914;57.680;11.982;2023-11-19T13:00:25;99708.23;;;3.42;100.00